Time;durP1;ratioP1;P1;durP2;ratioP2;P2;SDS_P1;SDS_P2;PMS_P1;PMS_P2;Temp;Humidity;BMP_temperature;BMP_pressure;BME280_temperature;BME280_humidity;BME280_pressure;Samples;Min_cycle;Max_cycle;Signal;HPM_P1;HPM_P2
2023/09/05 00:00:05;;;;;;;2.83;1.90;;;18.50;66.20;;;;;;958815;147;27371;-74
2023/09/05 00:02:32;;;;;;;1.80;1.67;;;18.50;66.20;;;;;;947630;148;27272;-74
2023/09/05 00:04:58;;;;;;;2.25;1.75;;;18.40;66.30;;;;;;931051;151;27474;-74
2023/09/05 00:07:26;;;;;;;2.98;1.95;;;18.40;66.50;;;;;;957934;147;27453;-75
2023/09/05 00:09:51;;;;;;;2.22;2.00;;;18.40;66.60;;;;;;957682;147;27496;-74
2023/09/05 00:12:18;;;;;;;2.42;2.12;;;18.40;67.10;;;;;;957545;147;27340;-74
2023/09/05 00:14:44;;;;;;;2.08;1.77;;;18.40;66.90;;;;;;957977;147;27267;-74
2023/09/05 00:17:11;;;;;;;3.02;2.08;;;18.30;66.90;;;;;;958642;147;27373;-74
2023/09/05 00:19:38;;;;;;;2.12;2.02;;;18.40;67.00;;;;;;958352;147;27459;-74
2023/09/05 00:22:04;;;;;;;1.72;1.62;;;18.30;66.50;;;;;;958306;147;27339;-75
2023/09/05 00:24:31;;;;;;;2.98;1.70;;;18.30;67.10;;;;;;956746;147;27878;-74
2023/09/05 00:27:00;;;;;;;1.82;1.72;;;18.30;67.10;;;;;;946166;148;27235;-74
2023/09/05 00:29:27;;;;;;;2.40;1.95;;;18.30;67.20;;;;;;957047;147;27404;-74
2023/09/05 00:31:53;;;;;;;2.15;1.95;;;18.30;67.30;;;;;;957988;147;27435;-74
2023/09/05 00:34:20;;;;;;;2.20;2.00;;;18.30;67.40;;;;;;957912;147;27815;-74
2023/09/05 00:36:52;;;;;;;2.65;2.10;;;18.30;67.60;;;;;;957974;147;27313;-74
2023/09/05 00:39:13;;;;;;;2.15;1.95;;;18.30;67.60;;;;;;956129;147;27301;-74
2023/09/05 00:41:40;;;;;;;4.40;1.70;;;18.30;67.80;;;;;;958526;147;27429;-74
2023/09/05 00:44:06;;;;;;;2.15;1.95;;;18.30;67.80;;;;;;956913;147;28391;-74
2023/09/05 00:46:33;;;;;;;3.30;1.85;;;18.20;67.80;;;;;;958061;147;27344;-74
2023/09/05 00:49:02;;;;;;;1.90;1.80;;;18.20;68.00;;;;;;955413;147;27360;-74
2023/09/05 00:51:27;;;;;;;2.02;1.92;;;18.10;68.20;;;;;;952798;147;27321;-76
2023/09/05 00:53:53;;;;;;;2.37;1.90;;;18.10;68.40;;;;;;953127;147;27931;-74
2023/09/05 00:56:19;;;;;;;3.17;2.02;;;18.10;68.50;;;;;;953365;147;27398;-74
2023/09/05 00:58:46;;;;;;;1.92;1.72;;;18.00;68.50;;;;;;952555;147;27241;-74
2023/09/05 01:01:12;;;;;;;2.02;1.80;;;18.00;68.70;;;;;;953324;147;28072;-74
2023/09/05 01:03:39;;;;;;;3.87;1.95;;;18.00;68.80;;;;;;952951;147;27424;-74
2023/09/05 01:06:06;;;;;;;2.05;1.85;;;18.00;68.90;;;;;;953006;147;27245;-74
2023/09/05 01:08:32;;;;;;;6.45;2.08;;;17.90;69.00;;;;;;952403;147;27856;-74
2023/09/05 01:11:08;;;;;;;2.60;1.90;;;17.90;69.10;;;;;;951541;147;27385;-74
2023/09/05 01:13:28;;;;;;;2.80;1.80;;;17.90;69.20;;;;;;952044;147;27886;-75
2023/09/05 01:15:55;;;;;;;2.40;1.82;;;17.90;69.30;;;;;;952846;147;27425;-74
2023/09/05 01:18:21;;;;;;;1.95;1.80;;;17.90;69.30;;;;;;952779;147;27398;-74
2023/09/05 01:21:22;;;;;;;4.58;2.55;;;17.80;69.30;;;;;;953360;147;27241;-74
2023/09/05 01:23:55;;;;;;;1.95;1.75;;;17.80;69.50;;;;;;952540;147;27418;-74
2023/09/05 01:26:21;;;;;;;5.03;2.42;;;17.80;69.30;;;;;;949834;147;27446;-73
2023/09/05 01:28:49;;;;;;;2.05;1.90;;;17.70;69.60;;;;;;953810;147;27347;-71
2023/09/05 01:31:15;;;;;;;2.00;1.90;;;17.60;69.80;;;;;;952566;147;27450;-72
2023/09/05 01:33:41;;;;;;;3.22;2.05;;;17.60;70.00;;;;;;953023;147;27773;-73
2023/09/05 01:36:07;;;;;;;2.35;1.85;;;17.50;70.10;;;;;;952958;147;27286;-72
2023/09/05 01:38:34;;;;;;;2.60;1.98;;;17.50;70.50;;;;;;953456;147;27341;-74
2023/09/05 01:41:00;;;;;;;3.95;2.17;;;17.40;70.60;;;;;;953787;147;27770;-72
2023/09/05 01:43:27;;;;;;;2.30;2.10;;;17.40;71.00;;;;;;952405;147;27336;-72
2023/09/05 01:45:53;;;;;;;3.67;2.00;;;17.30;71.10;;;;;;952776;147;27362;-71
2023/09/05 01:48:20;;;;;;;2.30;2.02;;;17.30;71.40;;;;;;952968;147;27346;-73
2023/09/05 01:50:47;;;;;;;4.65;2.27;;;17.20;71.40;;;;;;953265;147;27348;-72
2023/09/05 01:53:13;;;;;;;2.45;2.10;;;17.20;71.50;;;;;;953164;147;27345;-72
2023/09/05 01:55:40;;;;;;;2.20;2.00;;;17.20;71.70;;;;;;952705;147;27246;-71
2023/09/05 01:58:06;;;;;;;2.47;1.85;;;17.20;71.90;;;;;;952838;147;27333;-72
2023/09/05 02:00:33;;;;;;;2.22;2.02;;;17.20;72.10;;;;;;953473;147;27334;-74
2023/09/05 02:03:00;;;;;;;2.08;1.90;;;17.20;72.30;;;;;;953246;147;27445;-72
2023/09/05 02:05:26;;;;;;;1.98;1.80;;;17.20;72.40;;;;;;953221;147;27354;-71
2023/09/05 02:07:53;;;;;;;2.50;2.15;;;17.20;72.40;;;;;;953914;147;27313;-73
2023/09/05 02:10:19;;;;;;;2.58;1.90;;;17.30;72.50;;;;;;952763;147;27456;-75
2023/09/05 02:12:46;;;;;;;1.98;1.87;;;17.30;72.50;;;;;;953344;147;27356;-72
2023/09/05 02:15:13;;;;;;;3.35;2.12;;;17.40;72.60;;;;;;952946;147;27336;-71
2023/09/05 02:17:39;;;;;;;2.42;1.98;;;17.50;72.50;;;;;;953705;147;27751;-72
2023/09/05 02:20:06;;;;;;;1.95;1.80;;;17.50;72.40;;;;;;952802;147;27324;-75
2023/09/05 02:22:32;;;;;;;2.92;1.90;;;17.60;72.30;;;;;;952418;147;27484;-75
2023/09/05 02:25:02;;;;;;;1.70;1.60;;;17.70;72.10;;;;;;952242;147;27372;-72
2023/09/05 02:27:28;;;;;;;1.62;1.40;;;17.80;72.00;;;;;;952456;147;27370;-71
2023/09/05 02:30:01;;;;;;;2.00;1.75;;;17.80;71.80;;;;;;953682;147;27329;-72
2023/09/05 02:32:24;;;;;;;2.08;1.90;;;17.90;71.70;;;;;;952583;147;27261;-72
2023/09/05 02:34:51;;;;;;;1.57;1.30;;;18.00;71.50;;;;;;953406;147;27782;-72
2023/09/05 02:37:17;;;;;;;2.22;2.10;;;18.00;71.40;;;;;;953783;147;27293;-77
2023/09/05 02:39:44;;;;;;;1.75;1.65;;;18.10;71.30;;;;;;953128;147;27698;-77
2023/09/05 02:42:10;;;;;;;2.35;1.50;;;18.20;71.30;;;;;;953445;147;27326;-76
2023/09/05 02:44:37;;;;;;;1.70;1.60;;;18.20;71.10;;;;;;953309;147;27320;-75
2023/09/05 02:47:04;;;;;;;1.70;1.60;;;18.30;71.00;;;;;;953913;147;27398;-76
2023/09/05 02:49:30;;;;;;;1.98;1.87;;;18.40;71.00;;;;;;954909;147;27300;-76
2023/09/05 02:52:00;;;;;;;2.22;1.60;;;18.40;70.90;;;;;;958292;147;27305;-76
2023/09/05 02:54:29;;;;;;;1.62;1.52;;;18.50;70.80;;;;;;957281;147;27347;-77
2023/09/05 02:56:56;;;;;;;1.98;1.87;;;18.50;70.70;;;;;;957522;147;27324;-77
2023/09/05 02:59:22;;;;;;;3.15;1.98;;;18.60;70.60;;;;;;957812;147;27390;-76
2023/09/05 03:01:49;;;;;;;3.12;1.82;;;18.60;70.50;;;;;;958600;147;27324;-75
2023/09/05 03:04:15;;;;;;;2.05;1.67;;;18.60;70.30;;;;;;958203;147;27344;-77
2023/09/05 03:06:42;;;;;;;1.70;1.60;;;18.60;70.20;;;;;;959015;147;27316;-76
2023/09/05 03:09:09;;;;;;;2.00;1.90;;;18.70;70.10;;;;;;957789;147;27337;-74
2023/09/05 03:11:35;;;;;;;1.50;1.40;;;18.70;70.00;;;;;;958592;147;27297;-76
2023/09/05 03:14:02;;;;;;;1.60;1.50;;;18.80;70.00;;;;;;956715;147;27347;-76
2023/09/05 03:16:28;;;;;;;3.17;1.65;;;18.80;69.90;;;;;;957693;147;27479;-76
2023/09/05 03:18:59;;;;;;;1.75;1.65;;;18.80;69.80;;;;;;958008;147;27316;-77
2023/09/05 03:21:25;;;;;;;2.45;2.20;;;18.80;69.70;;;;;;957867;147;27365;-77
2023/09/05 03:23:51;;;;;;;1.55;1.45;;;18.80;69.80;;;;;;958153;147;27349;-74
2023/09/05 03:26:18;;;;;;;2.00;1.80;;;18.80;69.60;;;;;;958533;147;27425;-76
2023/09/05 03:28:44;;;;;;;2.35;2.15;;;18.80;69.50;;;;;;957613;147;27695;-77
2023/09/05 03:31:11;;;;;;;2.05;1.95;;;18.90;69.50;;;;;;958090;147;27226;-76
2023/09/05 03:33:38;;;;;;;1.70;1.60;;;18.90;69.50;;;;;;957351;147;27307;-76
2023/09/05 03:36:05;;;;;;;1.90;1.80;;;18.90;69.40;;;;;;958245;147;27360;-77
2023/09/05 03:38:31;;;;;;;2.05;1.85;;;18.80;69.30;;;;;;958481;147;27320;-77
2023/09/05 03:40:57;;;;;;;1.72;1.62;;;18.80;69.20;;;;;;958534;147;27312;-76
2023/09/05 03:43:24;;;;;;;2.20;1.45;;;18.80;69.20;;;;;;957950;147;27316;-76
2023/09/05 03:45:51;;;;;;;2.90;1.87;;;18.70;69.20;;;;;;958535;147;27312;-74
2023/09/05 03:48:17;;;;;;;1.37;1.30;;;18.70;69.20;;;;;;957903;147;27340;-76
2023/09/05 03:50:44;;;;;;;1.80;1.70;;;18.60;69.40;;;;;;955975;147;27789;-76
2023/09/05 03:53:10;;;;;;;1.60;1.50;;;18.60;69.60;;;;;;953198;147;27300;-76
2023/09/05 03:55:37;;;;;;;1.95;1.80;;;18.50;69.80;;;;;;952869;147;27338;-75
2023/09/05 03:58:03;;;;;;;2.50;1.70;;;18.40;69.90;;;;;;953240;147;27329;-74
2023/09/05 04:00:30;;;;;;;2.17;1.98;;;18.30;70.00;;;;;;941451;152;27435;-76
2023/09/05 04:02:57;;;;;;;1.70;1.60;;;18.20;70.10;;;;;;951545;147;27286;-76
2023/09/05 04:05:24;;;;;;;2.30;1.80;;;18.10;70.30;;;;;;953342;147;27419;-76
2023/09/05 04:07:50;;;;;;;2.10;1.90;;;18.00;70.50;;;;;;952257;148;27452;-76
2023/09/05 04:10:16;;;;;;;3.42;1.72;;;17.90;70.80;;;;;;952989;147;27396;-76
2023/09/05 04:12:43;;;;;;;2.27;1.72;;;17.80;71.00;;;;;;953076;147;27389;-75
2023/09/05 04:15:10;;;;;;;1.67;1.57;;;17.70;71.30;;;;;;952975;147;27293;-75
2023/09/05 04:17:37;;;;;;;1.92;1.82;;;17.60;71.40;;;;;;953376;147;27304;-75
2023/09/05 04:20:06;;;;;;;2.20;2.00;;;17.50;71.70;;;;;;953694;147;27425;-77
2023/09/05 04:22:29;;;;;;;2.27;1.80;;;17.40;71.90;;;;;;952944;147;27324;-76
2023/09/05 04:24:56;;;;;;;3.37;2.47;;;17.40;72.10;;;;;;953181;147;27336;-76
2023/09/05 04:27:23;;;;;;;1.90;1.80;;;17.30;72.40;;;;;;952513;147;27285;-75
2023/09/05 04:29:54;;;;;;;1.87;1.77;;;17.20;73.50;;;;;;953654;147;27345;-74
2023/09/05 04:32:27;;;;;;;1.98;1.87;;;17.20;73.00;;;;;;951373;147;27364;-76
2023/09/05 04:34:45;;;;;;;2.27;1.95;;;17.10;73.30;;;;;;951898;147;27313;-76
2023/09/05 04:37:12;;;;;;;2.95;2.22;;;17.10;73.60;;;;;;953613;147;27319;-75
2023/09/05 04:39:38;;;;;;;2.12;1.92;;;17.00;73.70;;;;;;953414;147;27835;-74
2023/09/05 04:42:05;;;;;;;2.10;1.75;;;17.00;73.90;;;;;;952783;147;27915;-76
2023/09/05 04:44:32;;;;;;;2.02;1.92;;;16.90;74.10;;;;;;953125;147;27354;-76
2023/09/05 04:47:28;;;;;;;2.30;2.12;;;16.90;74.30;;;;;;953793;147;27812;-76
2023/09/05 04:49:55;;;;;;;5.85;2.27;;;16.80;74.60;;;;;;953401;147;27300;-76
2023/09/05 04:54:55;;;;;;;3.60;2.15;;;16.80;74.40;;;;;;975072;143;37113;-75
2023/09/05 04:57:22;;;;;;;2.25;2.02;;;16.70;75.30;;;;;;957639;145;27320;-76
2023/09/05 04:59:49;;;;;;;2.47;2.27;;;16.70;75.40;;;;;;955908;149;27310;-73
2023/09/05 05:02:18;;;;;;;2.22;1.90;;;16.70;75.70;;;;;;956218;145;27341;-73
2023/09/05 05:04:45;;;;;;;2.55;2.20;;;16.70;75.90;;;;;;955097;145;27326;-73
2023/09/05 05:07:11;;;;;;;2.00;1.80;;;16.70;76.20;;;;;;957496;145;27304;-76
2023/09/05 05:09:41;;;;;;;2.17;1.92;;;16.70;77.00;;;;;;949043;148;27463;-72
2023/09/05 05:12:07;;;;;;;2.00;1.80;;;16.80;78.00;;;;;;946553;151;27439;-73
2023/09/05 05:14:34;;;;;;;2.17;1.98;;;17.10;79.00;;;;;;946214;148;27268;-73
2023/09/05 05:17:00;;;;;;;2.15;1.95;;;17.40;79.90;;;;;;945995;149;27299;-76
2023/09/05 05:19:27;;;;;;;3.40;2.30;;;17.70;80.20;;;;;;946681;148;27428;-73
2023/09/05 05:21:54;;;;;;;2.33;2.12;;;18.10;80.50;;;;;;946316;148;27356;-73
2023/09/05 05:24:20;;;;;;;3.20;1.92;;;18.60;80.60;;;;;;945757;148;27315;-73
2023/09/05 05:26:47;;;;;;;2.52;1.65;;;19.10;80.70;;;;;;946255;150;27396;-74
2023/09/05 05:29:13;;;;;;;2.00;1.85;;;19.70;80.60;;;;;;945188;148;27435;-77
2023/09/05 05:31:40;;;;;;;3.37;2.02;;;20.30;80.20;;;;;;945927;148;27336;-74
2023/09/05 05:34:06;;;;;;;1.75;1.65;;;20.90;79.40;;;;;;945818;148;27324;-74
2023/09/05 05:36:33;;;;;;;2.25;2.05;;;21.50;78.10;;;;;;946372;148;27288;-74
2023/09/05 05:39:00;;;;;;;1.90;1.80;;;22.10;76.70;;;;;;946232;150;27408;-74
2023/09/05 05:41:26;;;;;;;1.87;1.75;;;22.70;75.50;;;;;;946207;151;27356;-77
2023/09/05 05:43:53;;;;;;;1.75;1.62;;;23.30;74.40;;;;;;946166;148;27352;-75
2023/09/05 05:46:19;;;;;;;1.70;1.60;;;24.00;73.20;;;;;;945747;148;27301;-70
2023/09/05 05:48:46;;;;;;;2.22;2.00;;;24.60;72.10;;;;;;946733;148;27910;-72
2023/09/05 05:51:13;;;;;;;1.92;1.77;;;25.30;71.10;;;;;;946564;151;27886;-74
2023/09/05 05:53:39;;;;;;;1.98;1.82;;;26.00;70.00;;;;;;947678;150;27511;-74
2023/09/05 05:56:08;;;;;;;2.50;1.77;;;26.60;69.00;;;;;;952662;150;27286;-72
2023/09/05 05:58:32;;;;;;;1.85;1.75;;;27.30;67.60;;;;;;952526;150;27327;-71
2023/09/05 06:00:59;;;;;;;1.80;1.70;;;28.00;67.00;;;;;;953372;148;27303;-75
2023/09/05 06:03:26;;;;;;;1.92;1.75;;;28.70;64.90;;;;;;953422;149;27340;-72
2023/09/05 06:05:52;;;;;;;2.25;1.72;;;29.40;63.60;;;;;;952840;148;27349;-74
2023/09/05 06:08:19;;;;;;;1.80;1.70;;;30.10;62.80;;;;;;952237;150;27233;-74
2023/09/05 06:10:46;;;;;;;1.95;1.77;;;30.70;61.20;;;;;;951452;148;27315;-74
2023/09/05 06:13:12;;;;;;;2.05;1.67;;;31.40;59.80;;;;;;952243;149;27451;-74
2023/09/05 06:15:39;;;;;;;2.52;1.90;;;32.00;59.00;;;;;;951751;150;27389;-74
2023/09/05 06:18:05;;;;;;;1.75;1.62;;;32.70;58.00;;;;;;951988;150;27287;-74
2023/09/05 06:20:34;;;;;;;1.75;1.65;;;33.30;56.90;;;;;;952521;150;27312;-74
2023/09/05 06:23:01;;;;;;;2.37;1.70;;;33.90;55.90;;;;;;953003;150;27447;-73
2023/09/05 06:25:30;;;;;;;1.98;1.47;;;34.40;55.00;;;;;;951907;148;26624;-73
2023/09/05 06:27:57;;;;;;;2.25;2.05;;;34.90;54.20;;;;;;953231;150;26238;-74
2023/09/05 06:30:23;;;;;;;1.92;1.65;;;35.40;53.30;;;;;;952677;148;26280;-74
2023/09/05 06:32:50;;;;;;;2.40;1.70;;;35.90;52.60;;;;;;951966;148;26275;-74
2023/09/05 06:35:16;;;;;;;2.90;1.95;;;36.40;51.90;;;;;;950394;150;26223;-74
2023/09/05 06:37:43;;;;;;;1.67;1.57;;;36.80;50.90;;;;;;952155;148;26152;-74
2023/09/05 06:40:14;;;;;;;1.60;1.50;;;37.20;50.00;;;;;;952861;148;26254;-74
2023/09/05 06:42:42;;;;;;;2.17;1.57;;;37.70;49.50;;;;;;952314;149;26239;-74
2023/09/05 06:45:09;;;;;;;1.60;1.50;;;38.10;48.70;;;;;;952290;150;26183;-74
2023/09/05 06:47:35;;;;;;;1.70;1.60;;;38.50;48.10;;;;;;952775;148;26324;-74
2023/09/05 06:50:04;;;;;;;1.92;1.45;;;38.90;47.40;;;;;;953100;148;26297;-74
2023/09/05 06:52:28;;;;;;;2.77;1.47;;;39.30;46.50;;;;;;952760;149;26383;-74
2023/09/05 06:54:55;;;;;;;1.90;1.27;;;39.70;45.80;;;;;;952413;148;26204;-74
2023/09/05 06:57:22;;;;;;;1.75;1.60;;;40.00;45.00;;;;;;951928;148;26239;-74
2023/09/05 06:59:48;;;;;;;1.65;1.30;;;40.40;44.60;;;;;;952226;148;26220;-74
2023/09/05 07:02:15;;;;;;;1.60;1.45;;;40.70;44.00;;;;;;952545;148;26312;-74
2023/09/05 07:04:41;;;;;;;1.82;1.47;;;41.00;43.00;;;;;;951729;148;26360;-74
2023/09/05 07:07:08;;;;;;;3.22;1.55;;;41.20;41.90;;;;;;953155;150;26328;-74
2023/09/05 07:09:35;;;;;;;2.37;1.50;;;41.30;41.00;;;;;;952035;148;26219;-74
2023/09/05 07:12:03;;;;;;;1.60;1.50;;;41.30;40.40;;;;;;952859;148;26247;-74
2023/09/05 07:14:28;;;;;;;1.57;1.47;;;41.10;40.10;;;;;;952811;149;26354;-74
2023/09/05 07:16:54;;;;;;;1.77;1.57;;;41.00;40.00;;;;;;953134;150;26223;-76
2023/09/05 07:19:21;;;;;;;1.85;1.45;;;40.90;39.90;;;;;;952906;148;26250;-76
2023/09/05 07:21:47;;;;;;;1.70;1.60;;;40.90;39.70;;;;;;953189;148;26251;-76
2023/09/05 07:24:14;;;;;;;2.45;1.80;;;40.80;39.70;;;;;;953216;148;26262;-76
2023/09/05 07:26:41;;;;;;;1.85;1.70;;;40.80;39.50;;;;;;952488;150;27649;-77
2023/09/05 07:29:08;;;;;;;2.20;1.60;;;40.90;39.20;;;;;;952833;150;26156;-77
2023/09/05 07:31:34;;;;;;;2.33;1.50;;;41.00;38.90;;;;;;961455;146;26260;-76
2023/09/05 07:34:00;;;;;;;2.22;1.40;;;41.00;38.60;;;;;;962444;146;26287;-74
2023/09/05 07:36:31;;;;;;;4.60;1.70;;;41.00;38.50;;;;;;962476;146;26406;-77
2023/09/05 07:38:56;;;;;;;2.00;1.85;;;41.10;38.10;;;;;;962475;146;26327;-76
2023/09/05 07:41:24;;;;;;;1.65;1.55;;;41.10;37.90;;;;;;949541;149;26157;-76
2023/09/05 07:43:50;;;;;;;1.50;1.40;;;41.10;37.50;;;;;;948677;150;26420;-75
2023/09/05 07:46:16;;;;;;;2.08;1.80;;;41.00;37.30;;;;;;945335;149;26296;-76
2023/09/05 07:48:43;;;;;;;2.10;1.37;;;41.00;37.20;;;;;;962976;146;26231;-77
2023/09/05 07:51:09;;;;;;;2.40;1.75;;;41.00;37.20;;;;;;951467;149;26219;-76
2023/09/05 07:53:36;;;;;;;4.00;1.70;;;41.00;37.10;;;;;;953098;150;26332;-76
2023/09/05 07:56:03;;;;;;;1.37;1.27;;;41.00;37.20;;;;;;950050;148;26290;-77
2023/09/05 07:58:29;;;;;;;1.35;1.27;;;41.10;37.20;;;;;;947933;151;28344;-76
2023/09/05 08:00:56;;;;;;;1.37;1.30;;;41.30;37.10;;;;;;948279;150;26232;-76
2023/09/05 08:03:25;;;;;;;1.72;1.62;;;41.40;36.90;;;;;;948045;151;26232;-77
2023/09/05 08:05:50;;;;;;;1.90;1.67;;;41.60;36.70;;;;;;947349;151;26281;-74
2023/09/05 08:08:16;;;;;;;2.17;1.70;;;41.80;36.60;;;;;;947240;151;26263;-77
2023/09/05 08:10:42;;;;;;;1.85;1.70;;;42.20;36.60;;;;;;946003;150;26294;-77
2023/09/05 08:13:10;;;;;;;1.67;1.57;;;42.50;36.10;;;;;;947906;151;26301;-77
2023/09/05 08:15:36;;;;;;;1.60;1.50;;;42.80;35.70;;;;;;947178;151;26225;-76
2023/09/05 08:18:02;;;;;;;1.70;1.60;;;43.10;35.40;;;;;;947682;150;27860;-74
2023/09/05 08:20:29;;;;;;;1.75;1.40;;;43.30;35.00;;;;;;948135;148;26288;-76
2023/09/05 08:22:55;;;;;;;2.30;1.90;;;43.60;34.70;;;;;;947710;151;26653;-78
2023/09/05 08:25:24;;;;;;;1.92;1.80;;;43.80;34.50;;;;;;947703;150;26242;-75
2023/09/05 08:27:49;;;;;;;1.70;1.60;;;44.10;34.10;;;;;;947101;151;26309;-75
2023/09/05 08:30:15;;;;;;;1.67;1.52;;;44.30;33.80;;;;;;946901;150;26250;-75
2023/09/05 08:32:43;;;;;;;1.57;1.17;;;44.50;33.50;;;;;;947433;150;27176;-75
2023/09/05 08:35:11;;;;;;;1.45;1.20;;;44.70;33.20;;;;;;947456;150;26212;-75
2023/09/05 08:37:37;;;;;;;1.47;1.37;;;44.70;32.50;;;;;;947127;150;26246;-75
2023/09/05 08:40:04;;;;;;;2.05;1.50;;;44.80;32.30;;;;;;947465;150;26244;-75
2023/09/05 08:42:31;;;;;;;1.40;1.30;;;44.80;32.10;;;;;;946067;148;26351;-75
2023/09/05 08:45:00;;;;;;;1.32;1.22;;;44.70;31.80;;;;;;947558;151;26317;-75
2023/09/05 08:47:30;;;;;;;1.30;1.20;;;44.70;31.50;;;;;;946917;151;26292;-76
2023/09/05 08:49:59;;;;;;;2.40;1.25;;;44.50;31.30;;;;;;948173;150;26356;-75
2023/09/05 08:52:23;;;;;;;1.65;1.55;;;44.30;31.30;;;;;;947588;151;26258;-75
2023/09/05 08:54:50;;;;;;;4.83;1.65;;;44.10;31.40;;;;;;946557;150;26228;-75
2023/09/05 08:57:17;;;;;;;1.50;1.40;;;44.00;31.60;;;;;;939629;150;26393;-76
2023/09/05 08:59:43;;;;;;;1.30;1.20;;;43.90;31.50;;;;;;938932;149;26350;-76
2023/09/05 09:02:12;;;;;;;1.95;1.20;;;43.90;31.00;;;;;;940142;149;27907;-75
2023/09/05 09:04:50;;;;;;;1.50;1.02;;;43.80;30.90;;;;;;939223;149;26233;-76
2023/09/05 09:07:17;;;;;;;1.30;1.20;;;43.60;30.80;;;;;;939832;149;26335;-76
2023/09/05 09:09:44;;;;;;;2.17;1.40;;;43.30;30.40;;;;;;940040;149;26388;-75
2023/09/05 09:12:10;;;;;;;1.32;1.22;;;43.00;30.00;;;;;;940081;149;26265;-75
2023/09/05 09:14:37;;;;;;;1.15;1.05;;;42.70;30.00;;;;;;939875;149;26572;-76
2023/09/05 09:17:04;;;;;;;1.60;1.50;;;42.30;30.30;;;;;;940344;149;26306;-75
2023/09/05 09:19:30;;;;;;;2.10;1.52;;;41.90;31.20;;;;;;939283;149;26318;-76
2023/09/05 09:22:00;;;;;;;1.52;1.42;;;41.50;30.90;;;;;;940266;152;26334;-75
2023/09/05 09:24:26;;;;;;;2.55;1.42;;;41.20;31.70;;;;;;940113;149;26237;-76
2023/09/05 09:26:53;;;;;;;1.57;1.40;;;40.90;31.50;;;;;;940090;149;26276;-75
2023/09/05 09:29:19;;;;;;;1.70;1.40;;;40.70;31.60;;;;;;939672;149;26338;-75
2023/09/05 09:31:47;;;;;;;1.40;1.30;;;40.50;32.00;;;;;;940323;149;26268;-75
2023/09/05 09:34:13;;;;;;;3.20;1.50;;;40.30;32.10;;;;;;939727;149;26245;-75
2023/09/05 09:36:39;;;;;;;1.45;1.35;;;40.20;32.20;;;;;;939711;149;26298;-76
2023/09/05 09:39:11;;;;;;;1.98;1.50;;;40.10;32.30;;;;;;940146;149;26261;-75
2023/09/05 09:41:41;;;;;;;1.92;1.55;;;40.00;32.30;;;;;;939478;149;26346;-75
2023/09/05 09:44:08;;;;;;;1.65;1.47;;;39.90;32.00;;;;;;938927;149;26262;-75
2023/09/05 09:46:34;;;;;;;1.70;1.42;;;39.70;31.90;;;;;;938092;149;26337;-76
2023/09/05 09:49:01;;;;;;;1.50;1.40;;;39.40;32.20;;;;;;942846;148;26242;-75
2023/09/05 09:51:27;;;;;;;1.37;1.27;;;39.10;32.40;;;;;;927103;149;26282;-75
2023/09/05 09:53:54;;;;;;;1.20;1.20;;;38.70;32.50;;;;;;942165;148;27772;-75
2023/09/05 09:56:20;;;;;;;1.27;1.17;;;38.40;32.70;;;;;;937825;150;26327;-75
2023/09/05 09:58:47;;;;;;;1.50;1.40;;;38.10;33.20;;;;;;938718;150;26210;-75
2023/09/05 10:01:13;;;;;;;1.50;1.40;;;37.80;32.90;;;;;;944091;148;26339;-75
2023/09/05 10:03:40;;;;;;;1.42;1.32;;;37.40;33.00;;;;;;930181;150;26291;-75
2023/09/05 10:06:07;;;;;;;1.20;1.10;;;37.10;33.30;;;;;;926109;150;26438;-75
2023/09/05 10:08:33;;;;;;;1.10;1.10;;;36.80;33.90;;;;;;930275;150;26296;-75
2023/09/05 10:11:00;;;;;;;1.52;1.42;;;36.40;33.90;;;;;;933982;150;26295;-75
2023/09/05 10:13:27;;;;;;;2.37;1.50;;;36.10;34.00;;;;;;930343;150;27361;-75
2023/09/05 10:15:53;;;;;;;1.40;1.30;;;35.90;34.30;;;;;;925339;151;27339;-75
2023/09/05 10:18:20;;;;;;;1.60;1.50;;;35.60;35.00;;;;;;925844;150;27425;-75
2023/09/05 10:20:46;;;;;;;1.37;1.27;;;35.30;34.50;;;;;;925874;150;27438;-75
2023/09/05 10:23:13;;;;;;;1.92;1.50;;;35.00;34.50;;;;;;927670;149;27463;-75
2023/09/05 10:25:39;;;;;;;1.65;1.50;;;34.60;34.60;;;;;;937356;149;27294;-75
2023/09/05 10:28:06;;;;;;;1.45;1.35;;;34.30;35.00;;;;;;938133;149;27310;-75
2023/09/05 10:30:39;;;;;;;1.50;1.40;;;33.90;35.30;;;;;;937562;149;27377;-75
2023/09/05 10:33:05;;;;;;;1.17;1.17;;;33.50;35.70;;;;;;937719;149;27504;-75
2023/09/05 10:35:31;;;;;;;1.65;1.55;;;33.20;36.10;;;;;;937099;149;27455;-75
2023/09/05 10:38:03;;;;;;;3.42;1.70;;;32.80;36.40;;;;;;937493;149;27435;-75
2023/09/05 10:40:35;;;;;;;1.72;1.60;;;32.50;36.80;;;;;;937184;150;27470;-75
2023/09/05 10:43:02;;;;;;;1.60;1.50;;;32.30;37.20;;;;;;937253;150;27350;-75
2023/09/05 10:45:29;;;;;;;1.65;1.55;;;32.10;37.50;;;;;;925877;150;27337;-73
2023/09/05 10:47:58;;;;;;;1.87;1.45;;;31.90;37.80;;;;;;930373;150;27707;-75
2023/09/05 10:50:25;;;;;;;1.50;1.40;;;31.70;37.90;;;;;;939794;148;27443;-72
2023/09/05 10:53:12;;;;;;;2.95;1.55;;;31.40;38.10;;;;;;943049;148;27329;-73
2023/09/05 10:55:46;;;;;;;1.70;1.60;;;31.20;38.50;;;;;;939107;148;27274;-73
2023/09/05 10:58:39;;;;;;;2.27;1.50;;;31.00;38.60;;;;;;933673;150;27397;-72
2023/09/05 11:01:31;;;;;;;1.57;1.47;;;30.80;38.90;;;;;;938903;149;27395;-73
2023/09/05 11:03:58;;;;;;;1.45;1.35;;;30.70;39.00;;;;;;956186;147;27360;-73
2023/09/05 11:06:25;;;;;;;2.00;1.60;;;30.50;39.20;;;;;;955991;147;27433;-73
2023/09/05 11:09:07;;;;;;;1.70;1.60;;;30.40;39.60;;;;;;936435;150;27402;-72
2023/09/05 11:11:37;;;;;;;1.40;1.30;;;30.30;39.90;;;;;;946871;149;27365;-75
2023/09/05 11:14:03;;;;;;;1.70;1.50;;;30.10;40.00;;;;;;946942;148;27354;-72
2023/09/05 11:16:29;;;;;;;1.57;1.47;;;30.00;40.20;;;;;;946448;148;27322;-73
2023/09/05 11:18:57;;;;;;;1.20;1.20;;;29.90;40.30;;;;;;937562;150;27564;-73
2023/09/05 11:21:23;;;;;;;2.00;1.20;;;29.90;40.50;;;;;;941417;149;27348;-76
2023/09/05 11:23:52;;;;;;;1.70;1.60;;;29.80;40.90;;;;;;942709;149;27477;-73
2023/09/05 11:26:19;;;;;;;1.60;1.50;;;29.80;41.20;;;;;;956667;147;27410;-73
2023/09/05 11:28:48;;;;;;;1.30;1.20;;;29.80;41.40;;;;;;957864;147;27427;-72
2023/09/05 11:31:17;;;;;;;1.72;1.40;;;29.80;41.50;;;;;;947907;148;27902;-76
2023/09/05 11:33:41;;;;;;;1.82;1.60;;;29.70;41.20;;;;;;948000;148;27344;-72
2023/09/05 11:36:08;;;;;;;1.30;1.20;;;29.70;41.20;;;;;;938132;149;27473;-72
2023/09/05 11:38:46;;;;;;;1.50;1.37;;;29.70;41.20;;;;;;957033;147;27382;-73
2023/09/05 11:41:13;;;;;;;1.77;1.37;;;29.70;41.20;;;;;;956262;147;27882;-75
2023/09/05 11:43:46;;;;;;;1.90;1.20;;;29.70;41.30;;;;;;956011;147;27346;-73
2023/09/05 11:46:12;;;;;;;4.72;1.55;;;29.60;41.30;;;;;;948855;148;27328;-73
2023/09/05 11:48:39;;;;;;;1.87;1.50;;;29.60;41.40;;;;;;944063;151;27398;-73
2023/09/05 11:51:05;;;;;;;1.65;1.55;;;29.60;41.60;;;;;;944262;149;27386;-73
2023/09/05 11:53:32;;;;;;;1.35;1.25;;;29.60;41.60;;;;;;945064;149;27350;-76
2023/09/05 11:55:59;;;;;;;1.65;1.55;;;29.60;41.70;;;;;;944750;149;27356;-75
2023/09/05 11:58:26;;;;;;;1.52;1.42;;;29.70;41.80;;;;;;942546;150;27360;-75
2023/09/05 12:00:53;;;;;;;1.70;1.57;;;29.70;41.80;;;;;;939961;149;27334;-75
2023/09/05 12:03:18;;;;;;;1.52;1.42;;;29.70;41.90;;;;;;939960;149;27393;-75
2023/09/05 12:05:51;;;;;;;1.02;1.02;;;29.70;42.00;;;;;;939026;149;27337;-75
2023/09/05 12:08:17;;;;;;;2.15;1.20;;;29.70;42.60;;;;;;939585;149;27347;-75
2023/09/05 12:10:51;;;;;;;1.37;1.22;;;29.80;42.10;;;;;;938889;149;27324;-74
2023/09/05 12:13:10;;;;;;;2.22;1.25;;;29.80;42.00;;;;;;939762;149;27356;-75
2023/09/05 12:15:37;;;;;;;1.27;1.15;;;29.80;42.00;;;;;;939335;149;27434;-75
2023/09/05 12:18:04;;;;;;;2.33;1.25;;;29.80;42.00;;;;;;940002;150;27285;-75
2023/09/05 12:20:33;;;;;;;1.95;1.40;;;29.80;42.00;;;;;;939808;149;27709;-75
2023/09/05 12:23:00;;;;;;;1.27;1.17;;;29.80;42.10;;;;;;939939;149;27342;-75
2023/09/05 12:25:28;;;;;;;1.42;1.07;;;29.80;42.10;;;;;;940036;149;27305;-75
2023/09/05 12:27:55;;;;;;;1.35;1.25;;;29.80;42.30;;;;;;939746;150;27308;-75
2023/09/05 12:30:25;;;;;;;1.10;1.10;;;29.80;42.30;;;;;;939646;149;27447;-75
2023/09/05 12:32:51;;;;;;;1.32;1.27;;;29.80;42.30;;;;;;939849;149;27443;-75
2023/09/05 12:35:18;;;;;;;1.12;1.07;;;29.90;42.40;;;;;;939854;149;27337;-75
2023/09/05 12:37:44;;;;;;;1.30;1.20;;;29.90;42.50;;;;;;939990;149;27379;-75
2023/09/05 12:40:11;;;;;;;1.40;1.30;;;29.90;42.40;;;;;;940214;149;27351;-74
2023/09/05 12:42:38;;;;;;;1.52;1.27;;;29.90;42.20;;;;;;940339;149;27386;-75
2023/09/05 12:45:04;;;;;;;1.12;1.10;;;30.00;42.40;;;;;;939811;149;27345;-75
2023/09/05 12:47:31;;;;;;;1.75;1.30;;;29.90;42.40;;;;;;939478;149;27294;-75
2023/09/05 12:50:00;;;;;;;1.30;1.17;;;30.00;42.30;;;;;;939920;149;28134;-75